Погода Абапона неделю

Санта-Крус, Боливия

20 - 26 июля
  • 20июля
    Сегодня
    +9°
    +30°
    Ясно и безоблачно
    ВремяПогодаТемператураВлажностьДавлениеВетер, м/сВероятность осадков
    02:00Ясно и безоблачно+13°C91 %687 мм2.3 м/с5 %
    05:00Ясно и безоблачно+11°C94 %687 мм2.2 м/с5 %
    08:00Ясно и безоблачно+14°C84 %688 мм1.5 м/с5 %
    11:00Ясно и безоблачно+24°C49 %690 мм1.4 м/с5 %
    14:00Ясно и безоблачно+29°C36 %688 мм3.9 м/с5 %
    17:00Ясно и безоблачно+28°C37 %686 мм4.4 м/с5 %
    20:00Ясно и безоблачно+21°C60 %685 мм3.0 м/с5 %
    23:00Ясно и безоблачно+19°C64 %685 мм1.5 м/с5 %
  • 21июля
    Воскресенье
    +13°
    +33°
    Ясно и безоблачно
    ВремяПогодаТемператураВлажностьДавлениеВетер, м/сВероятность осадков
    02:00Практически безоблачно+12°C88 %682 мм1.9 м/с5 %
    05:00Ясно и безоблачно+10°C94 %681 мм2.4 м/с5 %
    08:00Ясно и безоблачно+13°C81 %683 мм2.0 м/с5 %
    11:00Ясно и безоблачно+27°C42 %685 мм1.0 м/с5 %
    14:00Ясно и безоблачно+32°C32 %684 мм6.6 м/с5 %
    17:00Ясно и безоблачно+30°C41 %683 мм5.8 м/с5 %
    20:00Ясно и безоблачно+24°C57 %685 мм3.8 м/с5 %
    23:00Ясно и безоблачно+16°C87 %685 мм1.8 м/с5 %
  • 22июля
    Понедельник
    +12°
    +30°
    Практически безоблачно
    ВремяПогодаТемператураВлажностьДавлениеВетер, м/сВероятность осадков
    02:00Ясно и безоблачно+15°C86 %686 мм2.3 м/с5 %
    05:00Небольшая облачность+15°C86 %687 мм0.8 м/с5 %
    08:00Ясно и безоблачно+16°C79 %689 мм1.0 м/с5 %
    11:00Ясно и безоблачно+25°C52 %691 мм0.8 м/с3 %
    14:00Практически безоблачно+29°C44 %689 мм2.3 м/с3 %
    17:00Ясно и безоблачно+29°C51 %688 мм1.7 м/с5 %
    20:00Ясно и безоблачно+22°C68 %687 мм1.0 м/с5 %
    23:00Ясно и безоблачно+16°C90 %687 мм1.9 м/с5 %
  • 23июля
    Вторник
    +13°
    +33°
    Практически безоблачно
    ВремяПогодаТемператураВлажностьДавлениеВетер, м/сВероятность осадков
    02:00Ясно и безоблачно+15°C96 %686 мм2.1 м/с5 %
    05:00Ясно и безоблачно+14°C99 %686 мм2.1 м/с5 %
    08:00Ясно и безоблачно+16°C84 %688 мм1.4 м/с5 %
    11:00Ясно и безоблачно+27°C48 %689 мм1.7 м/с5 %
    14:00Практически безоблачно+33°C31 %686 мм5.6 м/с5 %
    17:00Ясно и безоблачно+32°C40 %685 мм4.5 м/с5 %
    20:00Ясно и безоблачно+25°C57 %685 мм4.1 м/с5 %
    23:00Ясно и безоблачно+23°C61 %685 мм2.8 м/с5 %
  • 24июля
    Среда
    +15°
    +35°
    Ясно и безоблачно
    ВремяПогодаТемператураВлажностьДавлениеВетер, м/сВероятность осадков
    02:00Ясно и безоблачно+18°C81 %683 мм1.2 м/с5 %
    05:00Облачно с прояснениями+14°C96 %682 мм2.1 м/с5 %
    08:00Ясно и безоблачно+17°C84 %684 мм2.0 м/с5 %
    11:00Ясно и безоблачно+28°C48 %685 мм0.9 м/с5 %
    14:00Ясно и безоблачно+35°C36 %683 мм2.9 м/с5 %
    17:00Ясно и безоблачно+32°C47 %683 мм4.0 м/с5 %
    20:00Ясно и безоблачно+25°C62 %683 мм1.2 м/с5 %
    23:00Ясно и безоблачно+20°C80 %684 мм1.9 м/с5 %
Мы используем cookies
Соглашаюсь